Time;durP1;ratioP1;P1;durP2;ratioP2;P2;SDS_P1;SDS_P2;PMS_P1;PMS_P2;Temp;Humidity;BMP_temperature;BMP_pressure;BME280_temperature;BME280_humidity;BME280_pressure;Samples;Min_cycle;Max_cycle;Signal;HPM_P1;HPM_P2
2022/05/03 00:00:16;;;;;;;17.20;11.43;;;12.10;29.60;;;;;;5062628;28;20393;-74
2022/05/03 00:02:47;;;;;;;15.13;10.75;;;12.10;29.80;;;;;;5062926;28;20393;-74
2022/05/03 00:05:40;;;;;;;16.27;10.43;;;12.10;29.80;;;;;;5060307;28;20399;-74
2022/05/03 00:08:37;;;;;;;14.40;11.02;;;12.00;29.90;;;;;;5056735;28;20424;-74
2022/05/03 00:11:24;;;;;;;16.67;9.80;;;12.00;30.10;;;;;;5062143;28;20442;-74
2022/05/03 00:14:04;;;;;;;17.85;10.55;;;12.00;30.30;;;;;;5064041;28;20399;-74
2022/05/03 00:16:30;;;;;;;15.68;10.18;;;11.90;30.40;;;;;;5057876;28;20398;-74
2022/05/03 00:18:56;;;;;;;17.23;11.50;;;12.00;30.50;;;;;;5024910;28;20416;-74
2022/05/03 00:21:23;;;;;;;16.23;10.30;;;11.90;30.90;;;;;;5058765;28;20397;-74
2022/05/03 00:23:48;;;;;;;16.90;10.07;;;11.90;30.70;;;;;;5058638;28;20441;-74
2022/05/03 00:26:15;;;;;;;16.53;10.10;;;11.90;30.80;;;;;;5053578;28;20888;-74
2022/05/03 00:28:42;;;;;;;13.67;9.87;;;11.80;31.70;;;;;;5043051;28;20400;-74
2022/05/03 00:31:09;;;;;;;15.93;10.30;;;11.90;30.90;;;;;;5062002;28;20453;-74
2022/05/03 00:33:36;;;;;;;15.68;11.10;;;11.80;31.20;;;;;;5056744;28;20397;-74
2022/05/03 00:36:02;;;;;;;17.10;10.07;;;11.80;31.60;;;;;;5055588;28;20478;-74
2022/05/03 00:38:33;;;;;;;12.75;8.63;;;11.80;31.70;;;;;;5056320;28;20473;-75
2022/05/03 00:41:02;;;;;;;17.45;9.20;;;11.80;31.50;;;;;;5052294;28;20770;-74
2022/05/03 00:43:40;;;;;;;13.77;9.25;;;11.70;31.70;;;;;;5037482;28;20401;-74
2022/05/03 00:46:14;;;;;;;16.65;10.20;;;11.60;32.30;;;;;;5058812;28;20769;-74
2022/05/03 00:49:00;;;;;;;14.93;10.00;;;11.60;32.40;;;;;;5059746;28;20463;-74
2022/05/03 00:51:37;;;;;;;18.08;9.25;;;11.60;32.50;;;;;;5053751;28;20409;-74
2022/05/03 00:54:23;;;;;;;17.67;10.05;;;11.60;32.70;;;;;;5062540;28;20453;-74
2022/05/03 00:57:07;;;;;;;17.38;9.95;;;11.50;33.00;;;;;;5059937;28;20392;-74
2022/05/03 00:59:45;;;;;;;15.33;9.43;;;11.50;33.30;;;;;;5059547;28;20444;-74
2022/05/03 01:02:13;;;;;;;16.17;9.20;;;11.40;33.40;;;;;;5060119;28;20883;-74
2022/05/03 01:04:47;;;;;;;15.73;9.55;;;11.40;33.50;;;;;;5059074;28;20487;-74
2022/05/03 01:07:28;;;;;;;13.65;9.40;;;11.40;33.50;;;;;;5041148;28;20826;-74
2022/05/03 01:10:19;;;;;;;11.90;9.00;;;11.40;33.90;;;;;;5055569;28;20408;-74
2022/05/03 01:13:07;;;;;;;14.52;9.30;;;11.30;34.00;;;;;;5059521;28;20497;-74
2022/05/03 01:15:45;;;;;;;17.27;9.93;;;11.20;34.40;;;;;;5054490;28;20791;-74
2022/05/03 01:18:21;;;;;;;17.65;9.90;;;11.20;34.50;;;;;;5058133;28;20388;-74
2022/05/03 01:20:50;;;;;;;18.80;9.73;;;11.20;34.70;;;;;;5057195;28;20445;-74
2022/05/03 01:23:53;;;;;;;15.02;9.68;;;11.20;34.60;;;;;;5058588;28;20396;-74
2022/05/03 01:26:46;;;;;;;21.17;10.00;;;11.20;34.80;;;;;;5057164;28;20409;-74
2022/05/03 01:29:32;;;;;;;25.67;11.05;;;11.10;35.40;;;;;;5055574;28;20395;-74
2022/05/03 01:32:02;;;;;;;31.52;10.80;;;11.00;35.70;;;;;;5060047;28;20408;-74
2022/05/03 01:34:29;;;;;;;16.58;9.98;;;10.90;36.70;;;;;;5060635;28;20405;-74
2022/05/03 01:37:00;;;;;;;14.32;9.13;;;10.90;36.90;;;;;;5060506;28;20395;-74
2022/05/03 01:39:26;;;;;;;16.10;9.00;;;11.00;36.30;;;;;;5056284;28;20755;-74
2022/05/03 01:42:00;;;;;;;14.83;9.23;;;10.90;36.00;;;;;;5060116;28;20403;-74
2022/05/03 01:44:38;;;;;;;16.05;9.20;;;11.00;36.10;;;;;;5054101;28;20401;-75
2022/05/03 01:47:22;;;;;;;18.60;10.05;;;10.90;36.60;;;;;;5095087;22;20428;-72
2022/05/03 01:52:46;;;;;;;19.60;9.55;;;10.90;36.60;;;;;;5108188;28;20407;-72
2022/05/03 01:55:47;;;;;;;16.45;10.30;;;10.80;36.80;;;;;;5109629;28;20894;-72
2022/05/03 01:58:58;;;;;;;17.27;10.20;;;10.80;36.90;;;;;;5097003;28;20396;-73
2022/05/03 02:01:29;;;;;;;20.95;10.48;;;10.80;37.10;;;;;;5080401;28;20398;-72
2022/05/03 02:04:14;;;;;;;18.73;10.00;;;10.80;37.40;;;;;;5101987;28;20760;-71
2022/05/03 02:07:10;;;;;;;18.02;10.15;;;10.70;37.60;;;;;;5097884;28;20508;-72
2022/05/03 02:10:06;;;;;;;18.15;10.18;;;10.60;37.80;;;;;;5100106;28;20404;-71
2022/05/03 02:12:33;;;;;;;16.25;9.82;;;10.60;37.80;;;;;;5099341;28;20808;-71
2022/05/03 02:15:09;;;;;;;16.48;9.60;;;10.60;37.90;;;;;;5106043;28;20395;-71
2022/05/03 02:17:53;;;;;;;18.52;10.60;;;10.60;38.20;;;;;;5079088;28;20405;-71
2022/05/03 02:20:49;;;;;;;19.23;11.00;;;10.50;38.80;;;;;;5104700;28;20418;-71
2022/05/03 02:23:29;;;;;;;23.58;11.23;;;10.40;39.50;;;;;;5100488;28;20485;-72
2022/05/03 02:26:07;;;;;;;17.48;10.50;;;10.40;39.70;;;;;;5078627;28;20416;-72
2022/05/03 02:28:42;;;;;;;18.55;11.10;;;10.30;40.40;;;;;;5102727;28;20505;-71
2022/05/03 02:31:13;;;;;;;19.80;10.70;;;10.20;41.20;;;;;;5109113;28;21980;-71
2022/05/03 02:33:54;;;;;;;15.73;10.30;;;10.20;41.30;;;;;;5106406;28;20386;-71
2022/05/03 02:36:25;;;;;;;20.20;10.90;;;10.30;40.90;;;;;;5107649;28;20745;-72
2022/05/03 02:38:59;;;;;;;16.42;10.35;;;10.30;41.20;;;;;;5107619;28;20392;-72
2022/05/03 02:41:27;;;;;;;17.00;10.80;;;10.10;42.40;;;;;;5104845;28;20401;-73
2022/05/03 02:43:55;;;;;;;19.87;11.13;;;9.90;43.90;;;;;;5103034;28;20752;-71
2022/05/03 02:46:46;;;;;;;17.33;10.15;;;10.10;42.70;;;;;;5104457;28;20462;-71
2022/05/03 02:49:18;;;;;;;17.15;10.05;;;10.10;41.70;;;;;;5092550;28;20384;-72
2022/05/03 02:52:08;;;;;;;22.08;10.45;;;10.10;42.70;;;;;;5109333;28;20414;-73
2022/05/03 02:54:48;;;;;;;17.63;10.73;;;10.20;41.80;;;;;;5106860;28;20443;-70
2022/05/03 02:57:36;;;;;;;18.40;10.75;;;10.20;41.20;;;;;;5107759;28;20874;-71
2022/05/03 03:03:18;;;;;;;18.35;11.00;;;10.20;40.80;;;;;;5107209;28;20398;-72
2022/05/03 03:05:49;;;;;;;18.45;10.63;;;10.10;41.40;;;;;;5088517;28;20420;-72
2022/05/03 03:08:19;;;;;;;19.23;11.00;;;10.10;41.60;;;;;;5103564;28;20433;-73
2022/05/03 03:11:04;;;;;;;24.45;12.20;;;10.10;41.40;;;;;;5105851;28;20449;-74
2022/05/03 03:13:50;;;;;;;16.55;9.70;;;10.30;47.20;;;;;;5102679;28;20937;-70
2022/05/03 03:16:28;;;;;;;16.00;10.48;;;10.20;40.50;;;;;;5102097;28;20403;-70
2022/05/03 03:18:57;;;;;;;16.67;10.20;;;10.10;41.30;;;;;;5097931;28;20402;-70
2022/05/03 03:21:27;;;;;;;15.82;9.57;;;10.00;41.30;;;;;;5104729;28;20759;-71
2022/05/03 03:23:53;;;;;;;12.97;9.00;;;10.00;41.70;;;;;;5101409;28;20388;-70
2022/05/03 03:26:22;;;;;;;14.70;9.52;;;9.90;42.30;;;;;;5102616;28;20404;-70
2022/05/03 03:28:49;;;;;;;19.10;9.55;;;9.90;42.80;;;;;;5105770;28;20411;-69
2022/05/03 03:31:17;;;;;;;15.90;9.82;;;9.80;43.20;;;;;;5108645;27;20404;-70
2022/05/03 03:33:43;;;;;;;14.77;9.50;;;9.80;44.00;;;;;;5107003;28;20386;-71
2022/05/03 03:36:12;;;;;;;16.92;10.32;;;9.80;44.40;;;;;;5099845;28;20431;-70
2022/05/03 03:38:45;;;;;;;16.92;10.00;;;9.80;44.40;;;;;;5102489;28;20476;-71
2022/05/03 03:41:11;;;;;;;15.68;10.02;;;9.70;44.80;;;;;;5101390;28;20447;-70
2022/05/03 03:43:37;;;;;;;22.42;9.80;;;9.70;44.60;;;;;;5104343;28;20840;-70
2022/05/03 03:46:03;;;;;;;17.52;10.38;;;9.70;44.30;;;;;;5103100;28;20403;-70
2022/05/03 03:48:29;;;;;;;23.30;11.10;;;9.70;44.60;;;;;;5104275;28;20893;-71
2022/05/03 03:50:55;;;;;;;18.23;11.15;;;9.70;44.50;;;;;;5104342;28;20388;-71
2022/05/03 03:53:21;;;;;;;18.90;10.55;;;9.70;44.40;;;;;;5104022;28;20400;-71
2022/05/03 03:55:48;;;;;;;15.60;9.80;;;9.70;44.30;;;;;;5102640;28;20408;-70
2022/05/03 03:58:14;;;;;;;19.80;11.18;;;9.70;44.30;;;;;;5106557;28;20396;-72
2022/05/03 04:00:40;;;;;;;17.95;10.80;;;9.60;45.10;;;;;;5104748;28;20403;-74
2022/05/03 04:03:07;;;;;;;18.95;11.40;;;9.60;45.50;;;;;;5084018;28;20388;-71
2022/05/03 04:05:35;;;;;;;21.00;10.85;;;9.50;45.90;;;;;;5101280;28;20400;-72
2022/05/03 04:08:01;;;;;;;23.60;12.20;;;9.60;46.10;;;;;;5105430;28;20449;-73
2022/05/03 04:10:26;;;;;;;20.13;11.37;;;9.50;45.40;;;;;;5100742;28;20390;-71
2022/05/03 04:12:52;;;;;;;20.70;11.35;;;9.50;45.60;;;;;;5103236;28;20408;-73
2022/05/03 04:15:18;;;;;;;19.98;11.32;;;9.50;46.00;;;;;;5105841;28;20407;-72
2022/05/03 04:17:44;;;;;;;20.38;11.90;;;9.50;45.30;;;;;;5103002;28;20389;-71
2022/05/03 04:20:12;;;;;;;25.92;12.05;;;9.50;45.80;;;;;;5101965;28;20426;-70
2022/05/03 04:22:37;;;;;;;20.87;11.40;;;9.50;45.90;;;;;;5101934;28;20394;-72
2022/05/03 04:25:04;;;;;;;23.65;13.30;;;9.50;45.90;;;;;;5100352;28;20411;-73
2022/05/03 04:27:29;;;;;;;23.20;12.43;;;9.50;46.00;;;;;;5102683;28;20396;-71
2022/05/03 04:29:56;;;;;;;27.63;12.93;;;9.50;46.40;;;;;;5109562;27;20384;-71
2022/05/03 04:32:22;;;;;;;23.13;13.05;;;9.40;47.20;;;;;;5100343;28;20414;-71
2022/05/03 04:34:48;;;;;;;23.67;12.38;;;9.50;47.80;;;;;;5103098;28;20400;-70
2022/05/03 04:37:14;;;;;;;23.60;13.25;;;9.50;47.20;;;;;;5100770;28;20392;-70
2022/05/03 04:39:40;;;;;;;26.30;12.80;;;9.50;47.50;;;;;;5103783;28;20394;-71
2022/05/03 04:42:06;;;;;;;21.67;12.68;;;9.50;47.50;;;;;;5101683;28;20918;-71
2022/05/03 04:44:32;;;;;;;24.38;13.05;;;9.50;47.20;;;;;;5100447;28;20394;-72
2022/05/03 04:46:58;;;;;;;24.47;12.30;;;9.50;47.90;;;;;;5104677;28;20408;-73
2022/05/03 04:49:23;;;;;;;23.73;12.40;;;9.50;46.90;;;;;;5100063;28;20406;-72
2022/05/03 04:51:49;;;;;;;18.60;11.00;;;9.50;46.80;;;;;;5102227;28;20464;-72
2022/05/03 04:54:14;;;;;;;23.10;11.50;;;9.40;46.20;;;;;;5103579;28;20542;-71
2022/05/03 04:56:47;;;;;;;20.17;11.60;;;9.40;46.30;;;;;;5095571;28;20504;-71
2022/05/03 04:59:13;;;;;;;23.67;11.90;;;9.40;46.70;;;;;;5101434;28;20439;-70
2022/05/03 05:01:38;;;;;;;22.33;12.52;;;9.40;46.90;;;;;;5100405;28;20409;-71
2022/05/03 05:04:04;;;;;;;25.05;11.93;;;9.50;46.00;;;;;;5100786;28;20396;-71
2022/05/03 05:06:29;;;;;;;26.38;13.15;;;9.50;45.60;;;;;;5101907;28;20882;-71
2022/05/03 05:08:55;;;;;;;21.90;11.65;;;9.50;45.60;;;;;;5102163;28;20398;-71
2022/05/03 05:11:20;;;;;;;21.10;11.60;;;9.50;45.40;;;;;;5101065;28;20416;-71
2022/05/03 05:13:46;;;;;;;24.92;12.13;;;9.50;44.70;;;;;;5101498;28;20422;-71
2022/05/03 05:16:12;;;;;;;25.00;11.57;;;9.60;44.10;;;;;;5100055;28;20397;-71
2022/05/03 05:18:38;;;;;;;18.95;11.75;;;9.60;44.80;;;;;;5099248;28;20390;-71
2022/05/03 05:21:04;;;;;;;20.80;12.27;;;9.60;44.40;;;;;;5101362;28;20392;-71
2022/05/03 05:23:29;;;;;;;21.95;12.60;;;9.70;43.70;;;;;;5096333;28;20394;-70
2022/05/03 05:25:55;;;;;;;20.85;12.38;;;9.80;43.60;;;;;;5098935;28;20509;-71
2022/05/03 05:28:22;;;;;;;19.25;12.30;;;9.80;42.50;;;;;;5101965;28;20396;-72
2022/05/03 05:30:51;;;;;;;19.80;11.77;;;9.80;42.20;;;;;;5108408;27;20819;-70
2022/05/03 05:33:17;;;;;;;20.83;11.60;;;9.90;41.70;;;;;;5099712;28;20872;-71
2022/05/03 05:35:43;;;;;;;22.33;12.35;;;10.00;40.30;;;;;;5089790;28;20401;-71
2022/05/03 05:38:09;;;;;;;24.55;13.32;;;10.00;40.70;;;;;;5100586;28;20383;-71
2022/05/03 05:40:35;;;;;;;22.25;12.20;;;10.00;41.30;;;;;;5101356;28;20397;-71
2022/05/03 05:43:02;;;;;;;21.00;12.70;;;10.20;40.00;;;;;;5085364;28;20851;-70
2022/05/03 05:45:28;;;;;;;18.83;11.70;;;10.20;39.40;;;;;;5098423;28;20767;-71
2022/05/03 05:47:55;;;;;;;20.17;11.77;;;10.20;38.70;;;;;;5100566;28;20803;-71
2022/05/03 05:50:21;;;;;;;18.17;11.60;;;10.20;38.80;;;;;;5098457;28;20397;-71
2022/05/03 05:55:31;;;;;;;24.33;11.90;;;10.30;37.90;;;;;;5102950;28;20895;-71
2022/05/03 05:57:56;;;;;;;16.73;11.67;;;10.30;38.60;;;;;;5103169;28;20403;-71
2022/05/03 06:00:22;;;;;;;21.23;11.50;;;10.30;38.70;;;;;;5099238;28;20409;-70
2022/05/03 06:02:48;;;;;;;17.53;10.30;;;10.40;37.40;;;;;;5099871;28;20891;-71
2022/05/03 06:05:13;;;;;;;18.30;10.33;;;10.50;37.20;;;;;;5102839;28;20404;-71
2022/05/03 06:07:39;;;;;;;16.43;10.07;;;10.50;35.60;;;;;;5101015;28;20753;-72
2022/05/03 06:10:05;;;;;;;18.60;9.60;;;10.60;35.10;;;;;;5089087;28;20896;-71
2022/05/03 06:12:31;;;;;;;18.02;9.25;;;10.70;34.50;;;;;;5101059;28;20478;-73
2022/05/03 06:14:57;;;;;;;18.92;9.57;;;10.70;33.60;;;;;;5103196;28;20441;-73
2022/05/03 06:17:22;;;;;;;16.40;9.60;;;10.80;33.30;;;;;;5107318;28;20650;-71
2022/05/03 06:19:48;;;;;;;14.27;9.60;;;10.90;33.00;;;;;;5087105;28;20404;-71
2022/05/03 06:22:14;;;;;;;15.60;8.83;;;11.00;31.30;;;;;;5103638;28;20505;-72
2022/05/03 06:24:39;;;;;;;14.00;8.50;;;11.10;31.20;;;;;;5104259;28;20395;-71
2022/05/03 06:27:05;;;;;;;20.88;9.00;;;11.20;29.10;;;;;;5102819;28;20502;-71
2022/05/03 06:29:35;;;;;;;13.45;7.60;;;11.20;29.40;;;;;;5100147;28;20418;-72
2022/05/03 06:32:00;;;;;;;14.20;8.20;;;11.20;28.50;;;;;;5106231;28;20423;-73
2022/05/03 06:34:26;;;;;;;11.70;7.75;;;11.30;27.70;;;;;;5100016;28;20405;-71
2022/05/03 06:36:52;;;;;;;12.95;7.00;;;11.30;27.30;;;;;;5104713;28;20464;-71
2022/05/03 06:39:17;;;;;;;10.73;6.97;;;11.30;26.60;;;;;;5086464;28;20394;-71
2022/05/03 06:41:43;;;;;;;12.60;7.17;;;11.30;26.90;;;;;;5108250;28;20900;-71
2022/05/03 06:44:09;;;;;;;9.37;7.00;;;11.40;26.60;;;;;;5099929;28;21171;-72
2022/05/03 06:46:34;;;;;;;13.73;7.10;;;11.40;25.80;;;;;;5105257;28;20404;-71
2022/05/03 06:49:00;;;;;;;12.07;7.10;;;11.60;25.70;;;;;;5105488;28;20415;-72
2022/05/03 06:51:26;;;;;;;13.07;7.10;;;11.60;24.60;;;;;;5107722;28;20493;-76
2022/05/03 06:53:52;;;;;;;10.18;6.22;;;11.60;25.40;;;;;;5096668;28;20441;-71
2022/05/03 06:56:17;;;;;;;9.20;6.43;;;11.60;24.80;;;;;;5082343;28;21081;-70
2022/05/03 06:58:43;;;;;;;14.85;6.95;;;11.80;26.90;;;;;;5098034;28;20396;-73
2022/05/03 07:01:10;;;;;;;9.20;5.70;;;11.90;22.90;;;;;;5099511;28;20486;-72
2022/05/03 07:03:37;;;;;;;10.98;6.10;;;11.90;22.50;;;;;;5095387;28;20432;-72
2022/05/03 07:06:03;;;;;;;9.73;5.78;;;11.90;22.70;;;;;;5097095;28;20410;-73
2022/05/03 07:08:29;;;;;;;9.20;6.60;;;11.90;22.70;;;;;;5105317;28;20402;-71
2022/05/03 07:10:55;;;;;;;9.23;6.60;;;12.00;22.70;;;;;;5112988;27;20878;-71
2022/05/03 07:13:23;;;;;;;11.03;7.60;;;12.10;22.30;;;;;;5101712;28;20412;-71
2022/05/03 07:15:50;;;;;;;9.90;6.90;;;12.20;22.70;;;;;;5096732;28;20889;-72
2022/05/03 07:23:44;;;;;;;14.60;6.80;;;12.40;21.90;;;;;;5099648;28;20481;-72
2022/05/03 07:26:10;;;;;;;13.57;7.03;;;12.40;22.00;;;;;;5104745;28;20495;-71
2022/05/03 07:28:36;;;;;;;14.45;6.68;;;12.40;22.20;;;;;;5104435;28;20419;-72
2022/05/03 07:31:02;;;;;;;9.20;6.00;;;12.60;21.40;;;;;;5083378;28;20790;-72
2022/05/03 07:33:28;;;;;;;9.55;6.47;;;12.70;20.90;;;;;;5094783;28;20473;-71
2022/05/03 07:35:53;;;;;;;13.93;6.00;;;12.80;20.90;;;;;;5101117;28;20490;-71
2022/05/03 07:38:19;;;;;;;11.30;6.63;;;12.90;19.70;;;;;;5102714;27;20404;-72
2022/05/03 07:40:45;;;;;;;10.97;6.60;;;13.00;19.70;;;;;;5103751;28;20397;-72
2022/05/03 07:43:10;;;;;;;9.38;6.28;;;13.10;20.10;;;;;;5101806;28;20782;-72
2022/05/03 07:45:36;;;;;;;9.75;6.18;;;13.30;18.10;;;;;;5101031;28;20775;-73
2022/05/03 07:48:02;;;;;;;13.60;6.00;;;13.40;17.70;;;;;;5120937;22;20935;-75
2022/05/03 07:50:27;;;;;;;11.10;5.70;;;13.40;17.60;;;;;;5108505;28;20431;-75
2022/05/03 07:52:53;;;;;;;8.60;5.50;;;13.40;17.20;;;;;;5107571;28;20415;-75
2022/05/03 07:55:18;;;;;;;13.80;5.97;;;13.40;17.40;;;;;;5108637;28;20474;-74
2022/05/03 07:57:44;;;;;;;8.98;5.85;;;13.40;17.40;;;;;;5096172;28;20459;-73
2022/05/03 08:00:10;;;;;;;15.00;6.80;;;13.40;17.50;;;;;;5090237;28;20390;-76
2022/05/03 08:02:35;;;;;;;12.30;6.85;;;13.50;17.40;;;;;;5083995;28;20486;-75
2022/05/03 08:05:02;;;;;;;9.67;6.17;;;13.60;17.20;;;;;;5089808;28;20479;-79
2022/05/03 08:07:27;;;;;;;8.50;5.70;;;13.70;16.50;;;;;;5095834;28;20439;-76
2022/05/03 08:09:54;;;;;;;8.68;5.30;;;13.70;16.20;;;;;;5091166;28;20458;-75
2022/05/03 08:12:20;;;;;;;10.50;5.65;;;13.50;16.30;;;;;;5093553;28;20445;-75
2022/05/03 08:14:46;;;;;;;9.93;5.80;;;13.50;16.60;;;;;;5086573;28;20402;-74
2022/05/03 08:17:12;;;;;;;8.57;5.77;;;13.50;16.60;;;;;;5089830;28;20532;-74
2022/05/03 08:19:38;;;;;;;10.57;6.20;;;13.60;16.20;;;;;;5089906;28;20405;-76
2022/05/03 08:22:04;;;;;;;10.25;5.05;;;13.60;15.80;;;;;;5070525;28;20411;-77
2022/05/03 08:24:30;;;;;;;8.57;5.63;;;13.60;15.40;;;;;;5088373;28;20905;-75
2022/05/03 08:26:55;;;;;;;10.37;6.10;;;13.70;16.00;;;;;;5066375;28;20486;-75
2022/05/03 08:29:21;;;;;;;11.13;5.57;;;13.90;16.10;;;;;;5070524;28;20509;-73
2022/05/03 08:31:47;;;;;;;11.83;5.30;;;14.10;14.90;;;;;;5085998;28;20501;-75
2022/05/03 08:34:13;;;;;;;11.18;5.38;;;14.10;14.50;;;;;;5085814;28;20406;-74
2022/05/03 08:36:39;;;;;;;9.40;5.40;;;14.20;14.90;;;;;;5086145;28;21129;-75
2022/05/03 08:42:02;;;;;;;7.80;4.90;;;14.40;13.50;;;;;;5090168;28;20412;-76
2022/05/03 08:44:28;;;;;;;9.77;4.97;;;14.50;13.30;;;;;;5090535;28;20406;-74
2022/05/03 08:46:56;;;;;;;10.82;5.30;;;14.50;13.50;;;;;;5082584;28;20412;-74
2022/05/03 08:49:24;;;;;;;9.77;5.00;;;14.50;12.70;;;;;;5087285;28;20407;-76
2022/05/03 08:51:52;;;;;;;10.90;4.63;;;14.60;12.60;;;;;;5072171;28;20416;-76
2022/05/03 08:54:18;;;;;;;7.20;4.00;;;14.50;11.70;;;;;;5088223;28;20471;-73
2022/05/03 08:56:43;;;;;;;8.93;4.68;;;14.60;11.50;;;;;;5087054;28;20406;-75
2022/05/03 08:59:09;;;;;;;7.67;4.20;;;14.70;12.00;;;;;;5089916;28;20397;-75
2022/05/03 09:01:36;;;;;;;9.00;4.10;;;14.90;11.40;;;;;;5072629;28;20405;-74
2022/05/03 09:04:02;;;;;;;7.30;4.22;;;15.10;10.30;;;;;;5094414;28;20398;-74
2022/05/03 09:06:45;;;;;;;8.30;4.13;;;15.20;10.60;;;;;;5094215;28;20398;-75
2022/05/03 09:09:15;;;;;;;6.10;4.30;;;15.30;10.00;;;;;;5072780;28;20402;-73
2022/05/03 09:11:49;;;;;;;5.93;3.50;;;15.30;10.20;;;;;;5096215;28;20421;-75
2022/05/03 09:14:37;;;;;;;5.70;3.38;;;15.40;9.20;;;;;;5090652;28;20399;-72
2022/05/03 09:17:03;;;;;;;5.72;3.40;;;15.20;8.70;;;;;;5087184;28;20954;-73
2022/05/03 09:19:29;;;;;;;5.20;3.33;;;15.20;9.10;;;;;;5086309;28;20489;-73
2022/05/03 09:24:58;;;;;;;5.78;3.70;;;15.60;9.00;;;;;;5085947;28;20448;-74
2022/05/03 09:27:25;;;;;;;4.85;3.35;;;15.70;8.80;;;;;;5075194;28;20826;-73
2022/05/03 09:30:01;;;;;;;5.03;3.30;;;15.70;8.50;;;;;;5086655;28;20437;-72
2022/05/03 09:32:40;;;;;;;8.30;4.10;;;15.70;9.00;;;;;;5085565;28;20646;-76
2022/05/03 09:35:23;;;;;;;5.97;3.80;;;16.00;9.20;;;;;;5086316;28;20428;-76
2022/05/03 09:37:48;;;;;;;6.82;3.38;;;16.20;7.60;;;;;;5090064;28;20402;-76
2022/05/03 09:40:16;;;;;;;6.53;3.40;;;16.10;7.70;;;;;;5071367;28;20397;-76
2022/05/03 09:42:54;;;;;;;11.60;4.30;;;16.00;8.50;;;;;;5069489;28;20394;-75
2022/05/03 09:45:26;;;;;;;9.43;4.60;;;16.10;8.60;;;;;;5083518;28;20411;-78
2022/05/03 09:47:54;;;;;;;7.20;4.10;;;16.10;8.20;;;;;;5087641;28;20409;-74
2022/05/03 09:50:32;;;;;;;9.05;4.45;;;16.30;8.60;;;;;;5089810;28;20394;-75
2022/05/03 09:52:59;;;;;;;8.50;4.18;;;16.30;8.20;;;;;;5091175;28;20410;-75
2022/05/03 09:55:33;;;;;;;4.00;3.60;;;16.40;8.00;;;;;;5070648;28;20433;-76
2022/05/03 09:58:01;;;;;;;7.50;4.00;;;16.50;8.10;;;;;;5084591;28;20449;-76
2022/05/03 10:00:27;;;;;;;5.97;3.95;;;16.50;8.10;;;;;;5085013;28;20427;-75
2022/05/03 10:02:53;;;;;;;5.95;3.97;;;16.40;7.70;;;;;;5089031;28;20805;-76
2022/05/03 10:05:22;;;;;;;9.98;4.10;;;16.20;8.10;;;;;;5070541;28;20455;-76
2022/05/03 10:07:52;;;;;;;10.45;6.07;;;16.20;8.00;;;;;;5087151;28;20422;-76
2022/05/03 10:10:19;;;;;;;7.47;4.20;;;16.30;8.20;;;;;;5088499;28;20405;-75
2022/05/03 10:12:47;;;;;;;8.40;4.38;;;16.40;8.40;;;;;;5086177;28;20401;-76
2022/05/03 10:20:35;;;;;;;8.80;4.10;;;16.50;8.20;;;;;;5070693;28;20390;-76
2022/05/03 10:20:47;;;;;;;7.50;4.30;;;16.70;7.90;;;;;;5085339;28;20447;-76
2022/05/03 10:23:24;;;;;;;8.07;4.10;;;16.70;9.00;;;;;;5089096;28;20466;-75
2022/05/03 10:25:57;;;;;;;6.85;4.32;;;16.70;8.50;;;;;;5088203;28;20408;-77
2022/05/03 10:28:24;;;;;;;10.65;5.10;;;16.70;7.90;;;;;;5067632;28;20416;-73
2022/05/03 10:31:04;;;;;;;9.57;4.88;;;16.60;7.60;;;;;;5091679;28;20458;-72
2022/05/03 10:33:30;;;;;;;8.38;4.88;;;16.70;8.70;;;;;;5084286;28;20711;-74
2022/05/03 10:35:57;;;;;;;9.50;5.10;;;16.90;8.90;;;;;;5086801;28;20868;-73
2022/05/03 10:38:46;;;;;;;8.38;5.18;;;17.10;8.60;;;;;;5085505;28;20830;-73
2022/05/03 10:41:21;;;;;;;11.93;6.07;;;17.40;7.30;;;;;;5085767;28;20398;-73
2022/05/03 10:43:47;;;;;;;8.15;5.78;;;17.40;7.60;;;;;;5082202;28;20495;-73
2022/05/03 10:46:18;;;;;;;8.07;5.90;;;17.40;7.80;;;;;;5080924;28;20888;-73
2022/05/03 10:49:02;;;;;;;11.02;6.07;;;17.30;8.20;;;;;;5085522;28;20406;-72
2022/05/03 10:51:28;;;;;;;9.77;5.60;;;17.30;8.30;;;;;;5085578;28;20394;-73
2022/05/03 10:54:00;;;;;;;12.65;6.28;;;17.60;8.10;;;;;;5072261;28;20489;-72
2022/05/03 10:56:26;;;;;;;9.80;5.20;;;17.80;7.80;;;;;;5073092;28;20401;-75
2022/05/03 10:59:08;;;;;;;11.75;5.30;;;17.90;7.50;;;;;;5085608;28;20484;-75
2022/05/03 11:01:53;;;;;;;12.38;5.30;;;17.90;7.50;;;;;;5068547;28;20412;-73
2022/05/03 11:04:20;;;;;;;7.63;5.25;;;18.10;7.50;;;;;;5088070;28;20831;-74
2022/05/03 11:06:49;;;;;;;9.98;5.70;;;18.20;6.70;;;;;;5088399;28;20787;-72
2022/05/03 11:09:31;;;;;;;12.60;5.40;;;18.40;8.30;;;;;;5093890;28;20429;-73
2022/05/03 11:11:59;;;;;;;8.18;5.75;;;18.50;7.90;;;;;;5069156;28;20400;-73
2022/05/03 11:14:24;;;;;;;9.77;5.70;;;18.40;6.20;;;;;;5091494;28;20875;-74
2022/05/03 11:16:50;;;;;;;9.03;5.77;;;18.40;6.10;;;;;;5092511;28;20429;-74
2022/05/03 11:19:21;;;;;;;9.75;5.40;;;18.10;5.80;;;;;;5092188;28;20755;-73
2022/05/03 11:21:48;;;;;;;7.82;5.70;;;17.90;6.60;;;;;;5094109;28;20838;-74
2022/05/03 11:24:24;;;;;;;9.95;6.07;;;17.80;6.60;;;;;;5090699;28;20488;-73
2022/05/03 11:26:51;;;;;;;9.73;6.05;;;17.60;6.50;;;;;;5091210;28;20398;-75
2022/05/03 11:29:17;;;;;;;11.23;5.95;;;17.60;6.50;;;;;;5092509;28;20394;-73
2022/05/03 11:31:51;;;;;;;9.63;6.00;;;17.70;7.30;;;;;;5091396;28;20442;-75
2022/05/03 11:34:18;;;;;;;8.65;6.20;;;17.60;6.90;;;;;;5089443;28;20398;-74
2022/05/03 11:36:47;;;;;;;7.00;5.35;;;17.80;7.30;;;;;;5087248;28;20910;-74
2022/05/03 11:39:14;;;;;;;9.73;6.43;;;17.90;6.30;;;;;;5068850;28;20523;-73
2022/05/03 11:41:42;;;;;;;10.60;6.30;;;18.10;6.60;;;;;;5090786;28;20412;-74
2022/05/03 11:44:07;;;;;;;10.32;6.00;;;18.10;6.40;;;;;;5088842;28;20770;-77
2022/05/03 11:46:33;;;;;;;8.98;6.30;;;18.10;7.30;;;;;;5089802;28;20410;-76
2022/05/03 11:49:02;;;;;;;11.17;6.23;;;18.10;6.60;;;;;;5087079;28;20425;-74
2022/05/03 11:57:16;;;;;;;12.35;6.18;;;18.40;6.70;;;;;;5082455;28;20797;-74
2022/05/03 11:59:43;;;;;;;10.60;5.90;;;18.60;6.90;;;;;;5072028;28;20493;-76
2022/05/03 12:02:17;;;;;;;12.48;6.50;;;18.50;6.40;;;;;;5088881;28;20939;-76
2022/05/03 12:05:04;;;;;;;8.43;5.78;;;18.10;6.50;;;;;;5090107;28;20418;-74
2022/05/03 12:08:01;;;;;;;11.15;6.63;;;18.20;6.10;;;;;;5089428;28;20627;-74
2022/05/03 12:10:38;;;;;;;11.20;7.00;;;18.00;6.60;;;;;;5074201;28;20552;-75
2022/05/03 12:13:14;;;;;;;11.60;6.20;;;17.90;6.50;;;;;;5090652;28;20774;-74
2022/05/03 12:15:48;;;;;;;9.10;6.15;;;18.20;7.30;;;;;;5096054;28;20862;-75
2022/05/03 12:18:29;;;;;;;8.85;6.10;;;18.30;6.60;;;;;;5093370;28;20394;-75
2022/05/03 12:20:57;;;;;;;11.98;6.20;;;18.30;7.10;;;;;;5092281;28;20485;-75
2022/05/03 12:23:41;;;;;;;8.73;6.30;;;18.40;5.80;;;;;;5074043;28;20447;-75
2022/05/03 12:26:33;;;;;;;9.00;5.45;;;18.30;5.90;;;;;;5070749;28;20398;-75
2022/05/03 12:29:00;;;;;;;10.25;6.43;;;18.30;6.90;;;;;;5087975;28;20405;-74
2022/05/03 12:31:35;;;;;;;8.68;6.00;;;18.30;6.30;;;;;;5090921;28;20409;-75
2022/05/03 12:34:02;;;;;;;12.23;6.70;;;18.30;6.20;;;;;;5071392;28;20444;-76
2022/05/03 12:36:39;;;;;;;13.25;6.60;;;18.50;6.60;;;;;;5091674;28;20406;-75
2022/05/03 12:39:20;;;;;;;9.90;6.80;;;18.60;6.10;;;;;;5089392;28;20894;-76
2022/05/03 12:41:54;;;;;;;10.70;6.70;;;19.10;5.00;;;;;;5089954;28;20929;-76
2022/05/03 12:44:22;;;;;;;11.10;7.00;;;19.00;4.90;;;;;;5091286;28;20804;-77
2022/05/03 12:46:50;;;;;;;9.18;6.43;;;18.90;4.90;;;;;;5089818;28;20761;-77
2022/05/03 12:49:16;;;;;;;8.00;5.70;;;18.80;5.10;;;;;;5072873;28;20501;-75
2022/05/03 12:51:44;;;;;;;11.70;7.03;;;18.50;5.50;;;;;;5089397;28;20863;-76
2022/05/03 12:54:11;;;;;;;8.60;6.80;;;18.70;5.60;;;;;;5092569;28;20431;-77
2022/05/03 12:59:22;;;;;;;7.47;6.00;;;18.90;4.80;;;;;;5091514;28;20385;-76
2022/05/03 13:01:50;;;;;;;10.07;7.20;;;18.80;5.60;;;;;;5073591;28;20513;-76
2022/05/03 13:04:17;;;;;;;14.40;6.82;;;18.60;5.60;;;;;;5092089;28;20442;-75
2022/05/03 13:06:44;;;;;;;8.50;6.00;;;18.60;5.30;;;;;;5091518;28;20820;-76
2022/05/03 13:09:10;;;;;;;9.30;5.90;;;18.60;6.10;;;;;;5092398;28;20417;-76
2022/05/03 13:11:37;;;;;;;9.10;6.38;;;18.80;5.10;;;;;;5090426;28;20405;-75
2022/05/03 13:14:04;;;;;;;8.63;5.65;;;18.80;5.30;;;;;;5086303;28;20405;-76
2022/05/03 13:16:29;;;;;;;10.30;6.80;;;18.90;4.80;;;;;;5091017;28;20409;-74
2022/05/03 13:18:55;;;;;;;8.47;6.63;;;18.90;4.80;;;;;;5090582;28;20759;-75
2022/05/03 13:21:22;;;;;;;8.10;5.73;;;19.10;5.10;;;;;;5091789;28;20595;-75
2022/05/03 13:23:48;;;;;;;8.82;5.82;;;19.20;4.90;;;;;;5091804;28;20455;-75
2022/05/03 13:26:14;;;;;;;13.00;6.10;;;19.50;4.40;;;;;;5092461;28;20415;-76
2022/05/03 13:28:40;;;;;;;10.98;6.47;;;19.70;4.20;;;;;;5092027;28;20402;-75